createdAt,value
2022-11-21T00:00:15.840Z,0.00
2022-11-21T00:01:15.704Z,0.00
2022-11-21T00:02:15.750Z,0.00
2022-11-21T00:03:15.693Z,0.00
2022-11-21T00:04:15.672Z,0.00
2022-11-21T00:05:15.721Z,0.00
2022-11-21T00:06:15.668Z,0.00
2022-11-21T00:07:15.744Z,0.00
2022-11-21T00:08:15.642Z,0.00
2022-11-21T00:09:15.678Z,0.00
2022-11-21T00:10:15.614Z,0.00
2022-11-21T00:11:15.624Z,0.00
2022-11-21T00:12:15.633Z,0.00
2022-11-21T00:13:15.593Z,0.00
2022-11-21T00:14:15.575Z,0.00
2022-11-21T00:15:15.584Z,0.00
2022-11-21T00:16:15.572Z,0.00
2022-11-21T00:17:15.564Z,0.00
2022-11-21T00:18:15.549Z,0.00
2022-11-21T00:19:15.529Z,0.00
2022-11-21T00:20:15.519Z,0.00
2022-11-21T00:21:15.570Z,0.00
2022-11-21T00:22:15.503Z,0.00
2022-11-21T00:23:15.494Z,0.00
2022-11-21T00:24:15.503Z,0.00
2022-11-21T00:25:15.509Z,0.00
2022-11-21T00:26:15.463Z,0.00
2022-11-21T00:27:15.476Z,0.00
2022-11-21T00:28:15.436Z,0.00
2022-11-21T00:29:15.493Z,0.00
2022-11-21T00:30:15.447Z,0.00
2022-11-21T00:31:15.426Z,0.00
2022-11-21T00:32:15.402Z,0.00
2022-11-21T00:33:15.396Z,0.00
2022-11-21T00:34:15.420Z,0.00
2022-11-21T00:35:15.385Z,0.00
2022-11-21T00:36:15.360Z,0.00
2022-11-21T00:37:15.408Z,0.00
2022-11-21T00:38:15.344Z,0.00
2022-11-21T00:39:15.344Z,0.00
2022-11-21T00:40:15.373Z,0.00
2022-11-21T00:41:15.319Z,0.00
2022-11-21T00:42:15.303Z,0.00
2022-11-21T00:43:15.338Z,0.00
2022-11-21T00:44:15.296Z,0.00
2022-11-21T00:45:19.723Z,0.00
2022-11-21T00:46:15.278Z,0.00
2022-11-21T00:47:15.254Z,0.00
2022-11-21T00:48:15.266Z,0.00
2022-11-21T00:49:15.249Z,0.00
2022-11-21T00:50:15.250Z,0.00
2022-11-21T00:51:15.240Z,0.00
2022-11-21T00:52:15.235Z,0.00
2022-11-21T00:53:15.201Z,0.00
2022-11-21T00:54:15.209Z,0.00
2022-11-21T00:55:15.185Z,0.00
2022-11-21T00:56:15.208Z,0.00
2022-11-21T00:57:15.220Z,0.00
2022-11-21T00:58:15.157Z,0.00
2022-11-21T00:59:15.161Z,0.00
2022-11-21T01:00:15.230Z,0.00
2022-11-21T01:01:15.206Z,0.00
2022-11-21T01:02:15.111Z,0.00
2022-11-21T01:03:15.154Z,0.00
2022-11-21T01:04:15.094Z,0.00
2022-11-21T01:05:15.095Z,0.00
2022-11-21T01:06:15.160Z,0.00
2022-11-21T01:07:15.099Z,0.00
2022-11-21T01:08:15.068Z,0.00
2022-11-21T01:09:15.058Z,0.00
2022-11-21T01:10:15.087Z,0.00
2022-11-21T01:11:15.056Z,0.00
2022-11-21T01:12:15.034Z,0.00
2022-11-21T01:13:15.073Z,0.00
2022-11-21T01:14:14.996Z,0.00
2022-11-21T01:15:14.980Z,0.00
2022-11-21T01:16:14.988Z,0.00
2022-11-21T01:17:15.003Z,0.00
2022-11-21T01:18:15.008Z,0.00
2022-11-21T01:19:14.951Z,0.00
2022-11-21T01:20:14.948Z,0.00
2022-11-21T01:21:14.939Z,0.00
2022-11-21T01:22:14.937Z,0.00
2022-11-21T01:23:14.946Z,0.00
2022-11-21T01:24:14.948Z,0.00
2022-11-21T01:25:15.025Z,0.00
2022-11-21T01:26:14.897Z,0.00
2022-11-21T01:27:14.866Z,0.00
2022-11-21T01:28:14.860Z,0.00
2022-11-21T01:29:14.850Z,0.00
2022-11-21T01:30:14.848Z,0.00
2022-11-21T01:31:14.845Z,0.00
2022-11-21T01:32:14.826Z,0.00
2022-11-21T01:33:14.830Z,0.00
2022-11-21T01:34:14.811Z,0.00
2022-11-21T01:35:14.794Z,0.00
2022-11-21T01:36:14.797Z,0.00
2022-11-21T01:37:14.812Z,0.00
2022-11-21T01:38:14.773Z,0.00
2022-11-21T01:39:14.768Z,0.00
2022-11-21T01:40:14.780Z,0.00
2022-11-21T01:41:14.733Z,0.00
2022-11-21T01:42:14.725Z,0.00
2022-11-21T01:43:14.733Z,0.00
2022-11-21T01:44:14.724Z,0.00
2022-11-21T01:45:14.710Z,0.00
2022-11-21T01:46:14.695Z,0.00
2022-11-21T01:47:14.688Z,0.00
2022-11-21T01:48:14.680Z,0.00
2022-11-21T01:49:14.694Z,0.00
2022-11-21T01:50:14.668Z,0.00
2022-11-21T01:51:14.645Z,0.00
2022-11-21T01:52:14.645Z,0.00
2022-11-21T01:53:14.617Z,0.00
2022-11-21T01:54:14.609Z,0.00
2022-11-21T01:55:14.655Z,0.00
2022-11-21T01:56:14.602Z,0.00
2022-11-21T01:57:14.586Z,0.00
2022-11-21T01:58:14.591Z,0.00
2022-11-21T01:59:14.559Z,0.00
2022-11-21T02:00:14.556Z,0.00
2022-11-21T02:01:14.571Z,0.00
2022-11-21T02:02:14.548Z,0.00
2022-11-21T02:03:14.532Z,0.00
2022-11-21T02:04:14.516Z,0.00
2022-11-21T02:05:14.538Z,0.00
2022-11-21T02:06:14.509Z,0.00
2022-11-21T02:07:14.503Z,0.00
2022-11-21T02:08:14.492Z,0.00
2022-11-21T02:09:14.472Z,0.00
2022-11-21T02:10:14.455Z,0.00
2022-11-21T02:11:14.472Z,0.00
2022-11-21T02:12:14.440Z,0.00
2022-11-21T02:13:14.455Z,0.00
2022-11-21T02:14:14.436Z,0.00
2022-11-21T02:15:14.411Z,0.00
2022-11-21T02:16:14.412Z,0.00
2022-11-21T02:17:14.421Z,0.00
2022-11-21T02:18:14.383Z,0.00
2022-11-21T02:19:14.391Z,0.00
2022-11-21T02:20:14.362Z,0.00
2022-11-21T02:21:14.378Z,0.00
2022-11-21T02:22:14.349Z,0.00
2022-11-21T02:23:14.334Z,0.00
2022-11-21T02:24:14.351Z,0.00
2022-11-21T02:25:14.345Z,0.00
2022-11-21T02:26:14.328Z,0.00
2022-11-21T02:27:14.300Z,0.00
2022-11-21T02:28:14.424Z,0.00
2022-11-21T02:29:14.280Z,0.00
2022-11-21T02:30:14.285Z,0.00
2022-11-21T02:31:14.295Z,0.00
2022-11-21T02:32:14.252Z,0.00
2022-11-21T02:33:14.238Z,0.00
2022-11-21T02:34:14.255Z,0.00
2022-11-21T02:35:14.242Z,0.00
2022-11-21T02:36:14.211Z,0.00
2022-11-21T02:37:14.197Z,0.00
2022-11-21T02:38:14.185Z,0.00
2022-11-21T02:39:14.234Z,0.00
2022-11-21T02:40:14.170Z,0.00
2022-11-21T02:41:14.172Z,0.00
2022-11-21T02:42:14.264Z,0.00
2022-11-21T02:43:14.139Z,0.00
2022-11-21T02:44:14.148Z,0.00
2022-11-21T02:45:14.126Z,0.00
2022-11-21T02:46:14.150Z,0.00
2022-11-21T02:47:14.192Z,0.00
2022-11-21T02:48:14.106Z,0.00
2022-11-21T02:49:14.086Z,0.00
2022-11-21T02:50:14.073Z,0.00
2022-11-21T02:51:14.204Z,0.00
2022-11-21T02:52:14.054Z,0.00
2022-11-21T02:53:14.094Z,0.00
2022-11-21T02:54:14.045Z,0.00
2022-11-21T02:55:14.023Z,0.00
2022-11-21T02:56:14.029Z,0.00
2022-11-21T02:57:14.009Z,0.00
2022-11-21T02:58:13.995Z,0.00
2022-11-21T02:59:13.979Z,0.00
2022-11-21T03:00:13.985Z,0.00
2022-11-21T03:01:14.030Z,0.00
2022-11-21T03:02:13.967Z,0.00
2022-11-21T03:03:13.955Z,0.00
2022-11-21T03:04:13.947Z,0.00
2022-11-21T03:05:13.930Z,0.00
2022-11-21T03:06:13.948Z,0.00
2022-11-21T03:07:13.937Z,0.00
2022-11-21T03:08:13.910Z,0.00
2022-11-21T03:09:13.923Z,0.00
2022-11-21T03:10:14.047Z,0.00
2022-11-21T03:11:13.895Z,0.00
2022-11-21T03:12:13.856Z,0.00
2022-11-21T03:13:14.020Z,0.00
2022-11-21T03:14:13.850Z,0.00
2022-11-21T03:15:13.832Z,0.00
2022-11-21T03:16:13.850Z,0.00
2022-11-21T03:17:13.839Z,0.00
2022-11-21T03:18:13.820Z,0.00
2022-11-21T03:19:13.800Z,0.00
2022-11-21T03:20:13.786Z,0.00
2022-11-21T03:21:13.765Z,0.00
2022-11-21T03:22:13.765Z,0.00
2022-11-21T03:23:13.754Z,0.00
2022-11-21T03:24:13.766Z,0.00
2022-11-21T03:25:13.739Z,0.00
2022-11-21T03:26:13.751Z,0.00
2022-11-21T03:27:13.705Z,0.00
2022-11-21T03:28:13.718Z,0.00
2022-11-21T03:29:13.725Z,0.00
2022-11-21T03:30:13.703Z,0.00
2022-11-21T03:31:13.668Z,0.00
2022-11-21T03:32:13.728Z,0.00
2022-11-21T03:33:13.666Z,0.00
2022-11-21T03:34:13.688Z,0.00
2022-11-21T03:35:13.636Z,0.00
2022-11-21T03:36:13.651Z,0.00
2022-11-21T03:37:13.621Z,0.00
2022-11-21T03:38:13.645Z,0.00
2022-11-21T03:39:13.595Z,0.00
2022-11-21T03:40:13.601Z,0.00
2022-11-21T03:41:13.638Z,0.00
2022-11-21T03:42:13.572Z,0.00
2022-11-21T03:43:13.586Z,0.00
2022-11-21T03:44:13.594Z,0.00
2022-11-21T03:45:13.557Z,0.00
2022-11-21T03:46:13.531Z,0.00
2022-11-21T03:47:13.603Z,0.00
2022-11-21T03:48:13.517Z,0.00
2022-11-21T03:49:13.497Z,0.00
2022-11-21T03:50:13.511Z,0.00
2022-11-21T03:51:13.487Z,0.00
2022-11-21T03:52:13.483Z,0.00
2022-11-21T03:53:13.546Z,0.00
2022-11-21T03:54:13.453Z,0.00
2022-11-21T03:55:13.444Z,0.00
2022-11-21T03:56:13.439Z,0.00
2022-11-21T03:57:13.424Z,0.00
2022-11-21T03:58:13.445Z,0.00
2022-11-21T03:59:13.402Z,0.00
2022-11-21T04:00:13.396Z,0.00
2022-11-21T04:01:13.422Z,0.00
2022-11-21T04:02:13.375Z,0.00
2022-11-21T04:03:13.370Z,0.00
2022-11-21T04:04:13.377Z,0.00
2022-11-21T04:05:13.340Z,0.00
2022-11-21T04:06:13.379Z,0.00
2022-11-21T04:07:13.383Z,0.00
2022-11-21T04:08:13.371Z,0.00
2022-11-21T04:09:13.300Z,0.00
2022-11-21T04:10:13.294Z,0.00
2022-11-21T04:11:13.305Z,0.00
2022-11-21T04:12:13.294Z,0.00
2022-11-21T04:13:13.263Z,0.00
2022-11-21T04:14:13.252Z,0.00
2022-11-21T04:15:14.075Z,0.00
2022-11-21T04:16:13.234Z,0.00
2022-11-21T04:17:13.250Z,0.00
2022-11-21T04:18:13.239Z,0.00
2022-11-21T04:19:13.225Z,0.00
2022-11-21T04:20:13.228Z,0.00
2022-11-21T04:21:13.184Z,0.00
2022-11-21T04:22:13.180Z,0.00
2022-11-21T04:23:13.162Z,0.00
2022-11-21T04:24:13.185Z,0.00
2022-11-21T04:25:13.167Z,0.00
2022-11-21T04:26:13.152Z,0.00
2022-11-21T04:27:13.123Z,0.00
2022-11-21T04:28:13.125Z,0.00
2022-11-21T04:29:13.106Z,0.00
2022-11-21T04:30:13.104Z,0.00
2022-11-21T04:31:13.097Z,0.00
2022-11-21T04:32:13.083Z,0.00
2022-11-21T04:33:13.066Z,0.00
2022-11-21T04:34:13.083Z,0.00
2022-11-21T04:35:13.047Z,0.00
2022-11-21T04:36:13.064Z,0.00
2022-11-21T04:37:13.169Z,0.00
2022-11-21T04:38:13.022Z,0.00
2022-11-21T04:39:13.004Z,0.00
2022-11-21T04:40:13.081Z,0.00
2022-11-21T04:41:12.986Z,0.00
2022-11-21T04:42:12.996Z,0.00
2022-11-21T04:43:13.099Z,0.00
2022-11-21T04:44:12.961Z,0.00
2022-11-21T04:45:12.949Z,0.00
2022-11-21T04:46:12.991Z,0.00
2022-11-21T04:47:12.977Z,0.00
2022-11-21T04:48:12.935Z,0.00
2022-11-21T04:49:13.027Z,0.00
2022-11-21T04:50:12.907Z,0.00
2022-11-21T04:51:12.891Z,0.00
2022-11-21T04:52:12.900Z,0.00
2022-11-21T04:53:12.891Z,0.00
2022-11-21T04:54:12.871Z,0.00
2022-11-21T04:55:12.867Z,0.00
2022-11-21T04:56:12.863Z,0.00
2022-11-21T04:57:12.841Z,0.00
2022-11-21T04:58:12.832Z,0.00
2022-11-21T04:59:12.833Z,0.00
2022-11-21T05:00:12.854Z,0.00
2022-11-21T05:01:12.880Z,0.00
2022-11-21T05:02:12.815Z,0.00
2022-11-21T05:03:12.772Z,0.00
2022-11-21T05:04:12.789Z,0.00
2022-11-21T05:05:12.754Z,0.00
2022-11-21T05:06:12.760Z,0.00
2022-11-21T05:07:12.857Z,0.00
2022-11-21T05:08:12.758Z,0.00
2022-11-21T05:09:12.734Z,0.00
2022-11-21T05:10:12.723Z,0.00
2022-11-21T05:11:12.728Z,0.00
2022-11-21T05:12:12.708Z,0.00
2022-11-21T05:13:12.684Z,0.00
2022-11-21T05:14:12.751Z,0.00
2022-11-21T05:15:12.689Z,0.00
2022-11-21T05:16:12.667Z,0.00
2022-11-21T05:17:12.735Z,0.00
2022-11-21T05:18:12.631Z,0.00
2022-11-21T05:19:12.639Z,0.00
2022-11-21T05:20:12.692Z,0.00
2022-11-21T05:21:12.603Z,0.00
2022-11-21T05:22:12.613Z,0.00
2022-11-21T05:23:12.610Z,0.00
2022-11-21T05:24:12.579Z,0.00
2022-11-21T05:25:12.567Z,0.00
2022-11-21T05:26:12.643Z,0.00
2022-11-21T05:27:12.562Z,0.00
2022-11-21T05:28:12.530Z,0.00
2022-11-21T05:29:12.699Z,0.00
2022-11-21T05:30:12.521Z,0.00
2022-11-21T05:31:12.518Z,0.00
2022-11-21T05:32:12.611Z,0.00
2022-11-21T05:33:12.484Z,0.00
2022-11-21T05:34:12.494Z,0.00
2022-11-21T05:35:12.551Z,0.00
2022-11-21T05:36:12.455Z,0.00
2022-11-21T05:37:12.455Z,0.00
2022-11-21T05:38:12.458Z,0.00
2022-11-21T05:39:12.442Z,0.00
2022-11-21T05:40:12.455Z,0.00
2022-11-21T05:41:12.424Z,0.00
2022-11-21T05:42:12.394Z,0.00
2022-11-21T05:43:12.406Z,0.00
2022-11-21T05:44:12.399Z,0.00
2022-11-21T05:45:12.379Z,0.00
2022-11-21T05:46:12.360Z,0.00
2022-11-21T05:47:12.359Z,0.00
2022-11-21T05:48:12.357Z,0.00
2022-11-21T05:49:12.331Z,0.00
2022-11-21T05:50:12.316Z,0.00
2022-11-21T05:51:12.377Z,0.00
2022-11-21T05:52:12.314Z,0.00
2022-11-21T05:53:12.308Z,0.00
2022-11-21T05:54:12.351Z,0.00
2022-11-21T05:55:12.282Z,0.00
2022-11-21T05:56:12.316Z,0.00
2022-11-21T05:57:12.211Z,1.00
2022-11-21T05:58:12.245Z,0.00
2022-11-21T05:59:12.271Z,0.00
2022-11-21T06:00:12.231Z,1.00
2022-11-21T06:01:12.230Z,1.00
2022-11-21T06:02:12.159Z,1.00
2022-11-21T06:03:12.243Z,0.00
2022-11-21T06:04:12.214Z,2.00
2022-11-21T06:05:12.132Z,2.00
2022-11-21T06:06:12.139Z,1.00
2022-11-21T06:07:13.222Z,1.00
2022-11-21T06:08:12.105Z,2.00
2022-11-21T06:09:12.093Z,1.00
2022-11-21T06:10:12.097Z,3.00
2022-11-21T06:11:12.088Z,10.00
2022-11-21T06:12:12.074Z,7.00
2022-11-21T06:13:12.063Z,5.00
2022-11-21T06:14:12.081Z,3.00
2022-11-21T06:15:12.033Z,13.00
2022-11-21T06:16:12.015Z,10.00
2022-11-21T06:17:12.012Z,22.00
2022-11-21T06:18:12.019Z,18.00
2022-11-21T06:19:12.022Z,20.00
2022-11-21T06:20:11.995Z,26.00
2022-11-21T06:21:11.973Z,29.00
2022-11-21T06:22:11.981Z,38.00
2022-11-21T06:23:11.964Z,44.00
2022-11-21T06:24:11.961Z,53.00
2022-11-21T06:25:11.974Z,63.00
2022-11-21T06:26:11.927Z,73.00
2022-11-21T06:27:11.919Z,85.00
2022-11-21T06:28:11.940Z,96.00
2022-11-21T06:29:11.901Z,114.00
2022-11-21T06:30:11.924Z,133.00
2022-11-21T06:31:11.916Z,142.00
2022-11-21T06:32:11.955Z,157.00
2022-11-21T06:33:11.864Z,176.00
2022-11-21T06:34:11.863Z,197.00
2022-11-21T06:35:11.875Z,213.00
2022-11-21T06:36:11.830Z,236.00
2022-11-21T06:37:11.860Z,256.00
2022-11-21T06:38:11.841Z,267.00
2022-11-21T06:39:11.808Z,299.00
2022-11-21T06:40:11.818Z,315.00
2022-11-21T06:41:11.835Z,319.00
2022-11-21T06:42:11.779Z,350.00
2022-11-21T06:43:11.768Z,378.00
2022-11-21T06:44:11.788Z,413.00
2022-11-21T06:45:11.748Z,448.00
2022-11-21T06:46:11.747Z,462.00
2022-11-21T06:47:11.781Z,484.00
2022-11-21T06:48:11.734Z,501.00
2022-11-21T06:49:11.725Z,530.00
2022-11-21T06:50:11.729Z,545.00
2022-11-21T06:51:11.689Z,555.00
2022-11-21T06:52:11.677Z,569.00
2022-11-21T06:53:11.727Z,589.00
2022-11-21T06:54:28.420Z,611.00
2022-11-21T06:55:11.669Z,652.00
2022-11-21T06:56:11.679Z,694.00
2022-11-21T06:57:11.635Z,734.00
2022-11-21T06:58:11.616Z,824.00
2022-11-21T06:59:11.641Z,881.00
2022-11-21T07:00:11.628Z,894.00
2022-11-21T07:01:11.663Z,949.00
2022-11-21T07:02:11.623Z,1019.00
2022-11-21T07:03:11.577Z,999.00
2022-11-21T07:04:11.561Z,864.00
2022-11-21T07:05:11.605Z,1363.00
2022-11-21T07:06:11.572Z,989.00
2022-11-21T07:07:11.603Z,979.00
2022-11-21T07:08:13.489Z,823.00
2022-11-21T07:09:32.137Z,1626.00
2022-11-21T07:10:11.516Z,1266.00
2022-11-21T07:11:26.999Z,1086.00
2022-11-21T07:12:11.618Z,1710.00
2022-11-21T07:13:11.482Z,1144.00
2022-11-21T07:14:11.483Z,1709.00
2022-11-21T07:15:11.814Z,1316.00
2022-11-21T07:16:11.448Z,1827.00
2022-11-21T07:17:11.485Z,1187.00
2022-11-21T07:18:11.457Z,1179.00
2022-11-21T07:19:11.433Z,969.00
2022-11-21T07:20:11.584Z,1842.00
2022-11-21T07:21:11.440Z,1209.00
2022-11-21T07:22:11.482Z,2065.00
2022-11-21T07:23:11.387Z,2533.00
2022-11-21T07:24:11.400Z,1314.00
2022-11-21T07:25:11.397Z,2810.00
2022-11-21T07:26:11.371Z,2008.00
2022-11-21T07:27:11.417Z,2647.00
2022-11-21T07:28:11.331Z,3269.00
2022-11-21T07:29:11.344Z,2241.00
2022-11-21T07:30:11.325Z,3115.00
2022-11-21T07:31:13.998Z,3495.00
2022-11-21T07:32:11.308Z,2446.00
2022-11-21T07:33:11.292Z,2080.00
2022-11-21T07:34:11.564Z,3149.00
2022-11-21T07:35:11.265Z,1862.00
2022-11-21T07:36:11.391Z,3551.00
2022-11-21T07:37:11.272Z,2430.00
2022-11-21T07:38:11.238Z,3236.00
2022-11-21T07:39:11.236Z,3227.00
2022-11-21T07:40:11.245Z,3209.00
2022-11-21T07:41:11.246Z,3374.00
2022-11-21T07:42:11.200Z,3585.00
2022-11-21T07:43:11.317Z,3302.00
2022-11-21T07:44:11.185Z,3803.00
2022-11-21T07:45:11.205Z,4101.00
2022-11-21T07:46:11.278Z,3046.00
2022-11-21T07:47:11.159Z,4182.00
2022-11-21T07:48:11.146Z,2585.00
2022-11-21T07:49:11.150Z,3536.00
2022-11-21T07:50:11.118Z,3598.00
2022-11-21T07:51:11.122Z,3963.00
2022-11-21T07:52:11.128Z,3152.00
2022-11-21T07:53:11.099Z,1292.00
2022-11-21T07:54:11.138Z,5153.00
2022-11-21T07:55:11.089Z,4034.00
2022-11-21T07:56:11.078Z,3346.00
2022-11-21T07:57:11.216Z,1784.00
2022-11-21T07:58:11.076Z,2084.00
2022-11-21T07:59:11.071Z,3067.00
2022-11-21T08:00:11.077Z,7375.00
2022-11-21T08:01:11.024Z,7695.00
2022-11-21T08:02:11.043Z,7261.00
2022-11-21T08:03:11.008Z,5585.00
2022-11-21T08:04:11.020Z,6002.00
2022-11-21T08:05:10.996Z,4626.00
2022-11-21T08:06:10.964Z,6520.00
2022-11-21T08:07:11.068Z,5477.00
2022-11-21T08:08:10.959Z,4324.00
2022-11-21T08:09:10.952Z,4937.00
2022-11-21T08:10:10.947Z,5525.00
2022-11-21T08:11:10.923Z,5093.00
2022-11-21T08:12:10.912Z,2604.00
2022-11-21T08:13:11.159Z,4672.00
2022-11-21T08:14:10.918Z,4659.00
2022-11-21T08:15:10.881Z,5818.00
2022-11-21T08:16:10.871Z,5949.00
2022-11-21T08:17:11.076Z,6011.00
2022-11-21T08:18:10.882Z,5523.00
2022-11-21T08:19:10.874Z,6383.00
2022-11-21T08:20:10.849Z,7230.00
2022-11-21T08:21:12.736Z,6838.00
2022-11-21T08:22:10.829Z,4062.00
2022-11-21T08:23:10.862Z,4832.00
2022-11-21T08:24:10.811Z,7324.00
2022-11-21T08:25:10.784Z,5413.00
2022-11-21T08:26:10.801Z,6035.00
2022-11-21T08:27:10.792Z,3159.00
2022-11-21T08:28:10.763Z,5206.00
2022-11-21T08:29:10.744Z,5096.00
2022-11-21T08:30:10.735Z,8449.00
2022-11-21T08:31:10.754Z,7106.00
2022-11-21T08:32:10.725Z,6855.00
2022-11-21T08:33:10.736Z,7092.00
2022-11-21T08:34:14.448Z,8276.00
2022-11-21T08:35:10.728Z,7359.00
2022-11-21T08:36:10.706Z,4595.00
2022-11-21T08:37:10.663Z,3168.00
2022-11-21T08:38:10.669Z,2762.00
2022-11-21T08:39:10.643Z,2850.00
2022-11-21T08:40:10.635Z,3147.00
2022-11-21T08:41:16.096Z,3787.00
2022-11-21T08:42:10.646Z,4476.00
2022-11-21T08:43:10.688Z,4821.00
2022-11-21T08:44:14.029Z,5407.00
2022-11-21T08:45:10.601Z,4873.00
2022-11-21T08:46:10.571Z,5768.00
2022-11-21T08:47:10.604Z,6424.00
2022-11-21T08:48:10.565Z,5412.00
2022-11-21T08:49:10.564Z,5931.00
2022-11-21T08:50:10.565Z,6709.00
2022-11-21T08:51:10.583Z,8282.00
2022-11-21T08:52:10.512Z,7430.00
2022-11-21T08:53:10.518Z,6457.00
2022-11-21T08:54:10.496Z,6003.00
2022-11-21T08:55:10.492Z,5735.00
2022-11-21T08:56:10.493Z,5602.00
2022-11-21T08:57:10.650Z,5481.00
2022-11-21T08:58:10.474Z,5729.00
2022-11-21T08:59:10.469Z,5701.00
2022-11-21T09:00:10.444Z,5477.00
2022-11-21T09:01:10.431Z,5372.00
2022-11-21T09:02:10.464Z,6242.00
2022-11-21T09:03:10.461Z,6709.00
2022-11-21T09:04:10.438Z,7974.00
2022-11-21T09:05:10.392Z,7039.00
2022-11-21T09:06:10.411Z,6691.00
2022-11-21T09:07:10.461Z,8094.00
2022-11-21T09:08:10.369Z,7526.00
2022-11-21T09:09:10.373Z,7147.00
2022-11-21T09:10:10.354Z,7720.00
2022-11-21T09:11:10.355Z,7863.00
2022-11-21T09:12:10.343Z,7261.00
2022-11-21T09:13:10.314Z,10566.00
2022-11-21T09:14:10.301Z,8350.00
2022-11-21T09:15:10.306Z,9925.00
2022-11-21T09:16:10.310Z,8856.00
2022-11-21T09:17:10.322Z,8160.00
2022-11-21T09:18:10.268Z,8822.00
2022-11-21T09:19:10.260Z,9830.00
2022-11-21T09:20:10.345Z,7789.00
2022-11-21T09:21:10.236Z,5940.00
2022-11-21T09:22:10.280Z,6764.00
2022-11-21T09:23:10.291Z,7085.00
2022-11-21T09:24:10.224Z,6343.00
2022-11-21T09:25:10.201Z,6452.00
2022-11-21T09:26:10.304Z,6378.00
2022-11-21T09:27:10.339Z,6271.00
2022-11-21T09:28:10.183Z,6138.00
2022-11-21T09:29:10.177Z,5715.00
2022-11-21T09:30:10.152Z,5722.00
2022-11-21T09:31:10.138Z,6529.00
2022-11-21T09:32:10.179Z,6658.00
2022-11-21T09:33:10.128Z,6117.00
2022-11-21T09:34:10.118Z,6782.00
2022-11-21T09:35:10.125Z,8216.00
2022-11-21T09:36:10.102Z,6919.00
2022-11-21T09:37:10.086Z,6424.00
2022-11-21T09:38:10.097Z,7299.00
2022-11-21T09:39:10.059Z,7436.00
2022-11-21T09:40:10.053Z,8248.00
2022-11-21T09:41:10.063Z,5750.00
2022-11-21T09:42:10.032Z,6072.00
2022-11-21T09:43:10.019Z,9102.00
2022-11-21T09:44:10.032Z,10644.00
2022-11-21T09:45:10.004Z,8192.00
2022-11-21T09:46:10.097Z,8240.00
2022-11-21T09:47:09.972Z,8979.00
2022-11-21T09:48:09.999Z,6908.00
2022-11-21T09:49:09.957Z,8794.00
2022-11-21T09:50:09.995Z,9063.00
2022-11-21T09:51:09.973Z,5399.00
2022-11-21T09:52:09.929Z,6154.00
2022-11-21T09:53:09.922Z,7347.00
2022-11-21T09:54:09.985Z,7773.00
2022-11-21T09:55:09.904Z,2708.00
2022-11-21T09:56:09.893Z,6551.00
2022-11-21T09:57:09.959Z,22208.00
2022-11-21T09:58:09.877Z,8377.00
2022-11-21T09:59:09.867Z,13369.00
2022-11-21T10:00:09.876Z,3713.00
2022-11-21T10:01:09.929Z,5448.00
2022-11-21T10:02:09.830Z,8345.00
2022-11-21T10:03:09.834Z,9297.00
2022-11-21T10:04:09.810Z,5707.00
2022-11-21T10:05:09.804Z,5678.00
2022-11-21T10:06:09.795Z,6682.00
2022-11-21T10:07:09.914Z,7447.00
2022-11-21T10:08:09.867Z,7997.00
2022-11-21T10:09:09.775Z,9485.00
2022-11-21T10:10:09.752Z,3870.00
2022-11-21T10:11:19.104Z,27481.00
2022-11-21T10:12:09.802Z,4503.00
2022-11-21T10:13:09.719Z,22391.00
2022-11-21T10:14:09.727Z,29649.00
2022-11-21T10:15:09.740Z,20121.00
2022-11-21T10:16:09.693Z,13043.00
2022-11-21T10:17:09.684Z,19411.00
2022-11-21T10:18:09.681Z,25114.00
2022-11-21T10:19:09.685Z,20997.00
2022-11-21T10:20:09.665Z,24784.00
2022-11-21T10:21:09.664Z,27513.00
2022-11-21T10:22:09.635Z,15996.00
2022-11-21T10:23:09.651Z,10746.00
2022-11-21T10:24:09.616Z,3982.00
2022-11-21T10:25:09.651Z,26295.00
2022-11-21T10:26:09.597Z,27448.00
2022-11-21T10:27:09.592Z,12855.00
2022-11-21T10:28:09.604Z,26365.00
2022-11-21T10:29:09.569Z,25082.00
2022-11-21T10:30:09.590Z,21361.00
2022-11-21T10:31:09.546Z,2864.00
2022-11-21T10:32:09.546Z,15637.00
2022-11-21T10:33:09.529Z,8539.00
2022-11-21T10:34:09.530Z,8195.00
2022-11-21T10:35:09.503Z,6962.00
2022-11-21T10:36:09.518Z,6454.00
2022-11-21T10:37:11.864Z,4107.00
2022-11-21T10:38:09.509Z,5319.00
2022-11-21T10:39:09.469Z,17559.00
2022-11-21T10:40:09.471Z,12243.00
2022-11-21T10:41:09.474Z,6719.00
2022-11-21T10:42:09.465Z,5379.00
2022-11-21T10:43:09.449Z,3770.00
2022-11-21T10:44:09.412Z,9979.00
2022-11-21T10:45:09.403Z,11770.00
2022-11-21T10:46:09.474Z,12253.00
2022-11-21T10:47:09.382Z,5296.00
2022-11-21T10:48:09.391Z,6660.00
2022-11-21T10:49:09.447Z,12242.00
2022-11-21T10:50:09.363Z,11421.00
2022-11-21T10:51:09.341Z,11838.00
2022-11-21T10:52:09.418Z,13025.00
2022-11-21T10:53:09.335Z,11224.00
2022-11-21T10:54:09.327Z,6021.00
2022-11-21T10:55:09.320Z,15846.00
2022-11-21T10:56:09.310Z,9183.00
2022-11-21T10:57:09.294Z,9310.00
2022-11-21T10:58:09.459Z,3876.00
2022-11-21T10:59:09.299Z,20380.00
2022-11-21T11:00:09.261Z,9180.00
2022-11-21T11:01:09.272Z,7913.00
2022-11-21T11:02:09.244Z,6055.00
2022-11-21T11:03:09.242Z,2744.00
2022-11-21T11:05:08.202Z,6809.00
2022-11-21T11:06:09.310Z,4928.00
2022-11-21T11:07:09.246Z,4840.00
2022-11-21T11:08:09.206Z,5362.00
2022-11-21T11:09:09.216Z,6208.00
2022-11-21T11:10:09.174Z,6199.00
2022-11-21T11:11:09.144Z,2485.00
2022-11-21T11:12:09.252Z,16163.00
2022-11-21T11:13:30.866Z,3291.00
2022-11-21T11:14:09.139Z,11928.00
2022-11-21T11:15:09.207Z,12703.00
2022-11-21T11:16:09.101Z,4880.00
2022-11-21T11:17:09.084Z,4317.00
2022-11-21T11:18:09.881Z,3848.00
2022-11-21T11:19:09.075Z,3478.00
2022-11-21T11:20:09.063Z,3295.00
2022-11-21T11:21:09.086Z,3197.00
2022-11-21T11:22:09.039Z,3478.00
2022-11-21T11:23:09.031Z,3606.00
2022-11-21T11:24:09.042Z,3880.00
2022-11-21T11:25:09.014Z,4106.00
2022-11-21T11:26:09.017Z,4395.00
2022-11-21T11:27:09.097Z,4482.00
2022-11-21T11:28:08.979Z,5742.00
2022-11-21T11:29:08.964Z,5263.00
2022-11-21T11:30:09.073Z,4294.00
2022-11-21T11:31:08.963Z,3547.00
2022-11-21T11:32:08.939Z,3277.00
2022-11-21T11:33:08.984Z,3318.00
2022-11-21T11:34:08.926Z,3492.00
2022-11-21T11:35:08.915Z,3566.00
2022-11-21T11:36:08.952Z,3984.00
2022-11-21T11:37:08.920Z,4493.00
2022-11-21T11:38:08.904Z,4512.00
2022-11-21T11:39:08.912Z,4377.00
2022-11-21T11:40:08.863Z,4310.00
2022-11-21T11:41:08.857Z,4570.00
2022-11-21T11:42:13.792Z,5454.00
2022-11-21T11:43:08.858Z,5960.00
2022-11-21T11:44:08.828Z,5648.00
2022-11-21T11:45:08.809Z,5044.00
2022-11-21T11:46:08.827Z,5733.00
2022-11-21T11:47:08.808Z,7127.00
2022-11-21T11:48:08.802Z,7283.00
2022-11-21T11:49:20.329Z,6035.00
2022-11-21T11:50:08.795Z,4715.00
2022-11-21T11:51:08.752Z,4095.00
2022-11-21T11:52:08.774Z,2082.00
2022-11-21T11:53:08.757Z,7150.00
2022-11-21T11:54:08.727Z,19559.00
2022-11-21T11:55:08.728Z,19746.00
2022-11-21T11:56:08.726Z,14763.00
2022-11-21T11:57:08.706Z,4531.00
2022-11-21T11:58:08.689Z,3416.00
2022-11-21T11:59:08.702Z,22146.00
2022-11-21T12:00:08.682Z,21445.00
2022-11-21T12:01:08.662Z,18660.00
2022-11-21T12:02:11.799Z,20396.00
2022-11-21T12:03:08.675Z,20536.00
2022-11-21T12:04:08.638Z,18459.00
2022-11-21T12:05:08.629Z,16923.00
2022-11-21T12:06:09.613Z,15682.00
2022-11-21T12:09:07.660Z,19108.00
2022-11-21T12:10:08.575Z,17792.00
2022-11-21T12:11:08.559Z,21310.00
2022-11-21T12:12:08.590Z,23082.00
2022-11-21T12:13:08.609Z,20997.00
2022-11-21T12:14:08.531Z,7748.00
2022-11-21T12:15:08.517Z,6859.00
2022-11-21T12:16:13.467Z,5074.00
2022-11-21T12:17:08.501Z,5718.00
2022-11-21T12:18:08.592Z,10091.00
2022-11-21T12:19:08.552Z,26950.00
2022-11-21T12:20:08.469Z,23211.00
2022-11-21T12:21:08.461Z,19517.00
2022-11-21T12:22:08.487Z,19175.00
2022-11-21T12:23:08.447Z,19347.00
2022-11-21T12:24:08.457Z,20342.00
2022-11-21T12:25:08.416Z,20675.00
2022-11-21T12:26:08.474Z,19237.00
2022-11-21T12:27:08.400Z,20303.00
2022-11-21T12:28:08.393Z,19372.00
2022-11-21T12:29:08.427Z,16939.00
2022-11-21T12:30:08.394Z,15134.00
2022-11-21T12:31:08.378Z,2044.00
2022-11-21T12:32:08.373Z,6479.00
2022-11-21T12:33:09.377Z,20185.00
2022-11-21T12:34:08.344Z,19739.00
2022-11-21T12:35:08.329Z,14698.00
2022-11-21T12:36:17.209Z,5692.00
2022-11-21T12:37:08.299Z,5434.00
2022-11-21T12:38:08.292Z,5283.00
2022-11-21T12:39:08.290Z,5102.00
2022-11-21T12:40:08.270Z,4826.00
2022-11-21T12:41:08.285Z,6341.00
2022-11-21T12:42:08.248Z,7623.00